Αρχική σελίδα
METAR-TAF:

METAR-TAF

Αεροδρόμια :

Kit Carson County Airport

Burlington, Κολοράντο, Ηνωμένες Πολιτείες Αμερικής

γεωγραφικό πλάτος: 39-14-32N, γεωγραφικό μήκος: 102-16-58W, υψόμετρο: 1285 μ

Παρών καιρός

Η αναφορά έγινε 42 λεπτά πριν, στις 12:53 UTC
Άνεμος 10 kt από Δ
Θερμοκρασία -4°C
Υγρασία 68%
Πίεση 1026 hPa
Ορατότητα: 16.1 χλμ
Καθαρός ουρανός

METAR: KITR 161253Z AUTO 27010KT 10SM CLR M04/M09 A3029 RMK AO2 SLP283 T10441089 $

Χρόνος: 06:35 (13:35 UTC)


TAF: λείπει

Μετεωρολογικές αναφορές και προγνώσεις για περισσότερα από 4000 αεροδρόμια (δελτία METAR και TAF).

Οι διαθέσιμοι σταθμοί απεικονίζονται στο χάρτη με κίτρινες και κόκκινες κουκκίδες.

Μετακινήστε το ποντίκι πάνω από τις κουκκίδες για να δείτε το όνομα του σταθμού.

Στη συνέχεια, κάντε κλικ για να δείτε τις μετεωρολογικές αναφορές και τις προγνώσεις καιρού.

Για να αλλάξετε το χάρτη: κάντε κλικ στα πράσινα κουμπιά με τον μαύρο σταυρό για να ζουμάρετε, στο πράσινο κουμπί με την παύλα για να αφαιρέσετε το ζουμ ή στα πράσινα βέλη για να αντιπαραβάλλετε χάρτες.


METAR-TAF: